createdAt,value
2018-06-03T00:04:54.340Z,61.93
2018-06-03T00:09:55.338Z,62.30
2018-06-03T00:14:56.335Z,63.16
2018-06-03T00:19:57.303Z,63.80
2018-06-03T00:24:58.273Z,63.37
2018-06-03T00:29:59.247Z,64.91
2018-06-03T00:35:00.254Z,64.24
2018-06-03T00:40:01.216Z,63.14
2018-06-03T00:45:02.184Z,62.68
2018-06-03T00:50:03.167Z,63.35
2018-06-03T00:55:04.173Z,64.22
2018-06-03T01:00:05.172Z,63.45
2018-06-03T01:05:06.128Z,63.79
2018-06-03T01:10:07.094Z,62.83
2018-06-03T01:15:08.075Z,63.50
2018-06-03T01:20:09.042Z,63.25
2018-06-03T01:25:10.028Z,62.93
2018-06-03T01:30:11.028Z,62.57
2018-06-03T01:35:12.063Z,63.03
2018-06-03T01:40:13.067Z,63.51
2018-06-03T01:45:14.044Z,64.05
2018-06-03T01:50:15.021Z,64.79
2018-06-03T01:55:16.025Z,64.92
2018-06-03T02:00:17.032Z,64.36
2018-06-03T02:05:17.982Z,63.47
2018-06-03T02:10:18.956Z,63.30
2018-06-03T02:15:19.953Z,63.54
2018-06-03T02:20:20.919Z,62.79
2018-06-03T02:25:21.902Z,62.99
2018-06-03T02:30:22.897Z,63.52
2018-06-03T02:35:23.910Z,64.58
2018-06-03T02:40:24.923Z,64.16
2018-06-03T02:45:25.917Z,63.75
2018-06-03T02:50:26.960Z,63.86
2018-06-03T02:55:27.933Z,64.57
2018-06-03T03:00:28.959Z,64.38
2018-06-03T03:05:29.921Z,63.88
2018-06-03T03:10:30.900Z,63.21
2018-06-03T03:15:31.902Z,63.39
2018-06-03T03:20:32.894Z,63.85
2018-06-03T03:25:33.854Z,63.99
2018-06-03T03:30:34.834Z,63.56
2018-06-03T03:35:35.846Z,64.48
2018-06-03T03:40:36.834Z,64.64
2018-06-03T03:45:37.795Z,64.44
2018-06-03T03:50:38.781Z,65.51
2018-06-03T03:55:39.771Z,65.70
2018-06-03T04:00:40.750Z,65.37
2018-06-03T04:05:41.733Z,66.07
2018-06-03T04:10:42.698Z,65.34
2018-06-03T04:15:43.683Z,64.81
2018-06-03T04:20:44.639Z,64.92
2018-06-03T04:25:45.622Z,64.67
2018-06-03T04:30:46.589Z,65.02
2018-06-03T04:35:47.610Z,64.31
2018-06-03T04:40:48.592Z,64.34
2018-06-03T04:45:49.579Z,63.80
2018-06-03T04:50:50.540Z,63.96
2018-06-03T04:55:51.489Z,65.14
2018-06-03T05:00:52.463Z,64.92
2018-06-03T05:05:53.473Z,66.42
2018-06-03T05:10:54.435Z,66.23
2018-06-03T05:15:55.399Z,65.76
2018-06-03T05:20:56.361Z,66.01
2018-06-03T05:25:57.357Z,65.24
2018-06-03T05:30:58.356Z,65.91
2018-06-03T05:35:59.371Z,65.25
2018-06-03T05:41:00.348Z,64.84
2018-06-03T05:46:01.336Z,65.02
2018-06-03T05:51:02.315Z,64.21
2018-06-03T05:56:03.517Z,64.03
2018-06-03T06:01:04.495Z,64.32
2018-06-03T06:06:05.489Z,64.16
2018-06-03T06:11:06.474Z,63.54
2018-06-03T06:16:07.445Z,63.52
2018-06-03T06:21:08.417Z,64.14
2018-06-03T06:26:09.400Z,65.47
2018-06-03T06:31:10.371Z,64.10
2018-06-03T06:36:11.407Z,64.01
2018-06-03T06:41:12.588Z,65.34
2018-06-03T06:46:13.568Z,66.17
2018-06-03T06:51:14.574Z,66.94
2018-06-03T06:56:15.554Z,67.54
2018-06-03T07:01:16.571Z,66.78
2018-06-03T07:06:17.568Z,68.22
2018-06-03T07:11:18.556Z,68.23
2018-06-03T07:16:19.564Z,67.59
2018-06-03T07:21:20.532Z,67.44
2018-06-03T07:26:21.540Z,67.67
2018-06-03T07:31:22.516Z,67.51
2018-06-03T07:36:23.583Z,64.73
2018-06-03T07:41:24.567Z,64.31
2018-06-03T07:46:25.582Z,63.15
2018-06-03T07:51:26.580Z,62.30
2018-06-03T07:56:27.617Z,62.26
2018-06-03T08:01:28.615Z,62.61
2018-06-03T08:06:29.615Z,63.58
2018-06-03T08:11:30.579Z,62.20
2018-06-03T08:16:31.562Z,63.25
2018-06-03T08:21:32.561Z,64.13
2018-06-03T08:26:33.527Z,64.22
2018-06-03T08:31:34.531Z,66.37
2018-06-03T08:36:35.546Z,66.46
2018-06-03T08:41:36.555Z,66.54
2018-06-03T08:46:37.519Z,66.25
2018-06-03T08:51:38.547Z,67.06
2018-06-03T08:56:39.549Z,67.56
2018-06-03T09:01:40.556Z,68.35
2018-06-03T09:06:41.528Z,68.80
2018-06-03T09:11:42.542Z,67.92
2018-06-03T09:16:43.567Z,68.82
2018-06-03T09:21:44.539Z,68.76
2018-06-03T09:26:45.532Z,68.72
2018-06-03T09:31:46.584Z,67.93
2018-06-03T09:36:47.686Z,67.83
2018-06-03T09:41:48.716Z,67.75
2018-06-03T09:46:49.710Z,67.39
2018-06-03T09:51:50.725Z,67.56
2018-06-03T09:56:51.697Z,66.20
2018-06-03T10:01:52.718Z,66.74
2018-06-03T10:06:53.697Z,67.29
2018-06-03T10:11:54.705Z,67.20
2018-06-03T10:16:55.705Z,67.07
2018-06-03T10:21:56.675Z,66.47
2018-06-03T10:26:57.721Z,66.67
2018-06-03T10:31:58.721Z,66.96
2018-06-03T10:36:59.769Z,66.86
2018-06-03T10:42:00.761Z,66.95
2018-06-03T10:47:01.730Z,67.73
2018-06-03T10:52:02.705Z,68.20
2018-06-03T11:02:11.341Z,68.71
2018-06-03T11:07:12.328Z,68.77
2018-06-03T11:12:13.469Z,67.92
2018-06-03T11:17:14.479Z,67.28
2018-06-03T11:22:15.500Z,67.73
2018-06-03T11:27:16.490Z,68.08
2018-06-03T11:32:17.499Z,68.43
2018-06-03T11:37:18.517Z,68.25
2018-06-03T11:42:19.537Z,68.15
2018-06-03T11:47:20.552Z,68.61
2018-06-03T11:52:21.555Z,68.28
2018-06-03T11:57:22.583Z,66.79
2018-06-03T12:02:23.589Z,67.50
2018-06-03T12:07:24.577Z,67.52
2018-06-03T12:12:25.584Z,67.32
2018-06-03T12:17:26.569Z,67.85
2018-06-03T12:22:27.575Z,67.91
2018-06-03T12:27:28.581Z,68.02
2018-06-03T12:32:29.583Z,69.01
2018-06-03T12:37:30.623Z,68.89
2018-06-03T12:42:31.633Z,68.57
2018-06-03T12:47:32.644Z,67.96
2018-06-03T12:52:33.640Z,68.94
2018-06-03T12:57:34.647Z,67.72
2018-06-03T13:03:18.967Z,67.82
2018-06-03T13:08:21.153Z,66.67
2018-06-03T13:13:23.398Z,67.01
2018-06-03T13:18:25.587Z,65.95
2018-06-03T13:23:27.817Z,66.24
2018-06-03T13:28:30.051Z,65.19
2018-06-03T13:33:32.219Z,66.78
2018-06-03T13:38:34.497Z,66.97
2018-06-03T13:43:36.664Z,66.10
2018-06-03T13:48:38.897Z,65.72
2018-06-03T13:53:41.102Z,66.22
2018-06-03T13:58:43.279Z,62.91
2018-06-03T14:03:45.517Z,62.21
2018-06-03T14:08:47.683Z,62.02
2018-06-03T14:13:49.851Z,60.84
2018-06-03T14:18:52.030Z,59.07
2018-06-03T14:23:54.167Z,59.80
2018-06-03T14:28:56.374Z,59.30
2018-06-03T14:33:58.543Z,58.49
2018-06-03T14:39:00.758Z,58.13
2018-06-03T14:44:02.964Z,60.37
2018-06-03T14:49:05.175Z,59.23
2018-06-03T14:54:07.412Z,59.48
2018-06-03T14:59:09.575Z,58.59
2018-06-03T15:04:11.804Z,56.14
2018-06-03T15:09:13.998Z,57.43
2018-06-03T15:14:16.341Z,58.05
2018-06-03T15:19:18.593Z,58.33
2018-06-03T15:24:21.152Z,58.80
2018-06-03T15:29:23.373Z,57.93
2018-06-03T15:34:25.548Z,59.53
2018-06-03T15:39:28.080Z,58.76
2018-06-03T15:44:31.197Z,58.17
2018-06-03T15:49:34.476Z,58.28
2018-06-03T15:54:37.176Z,58.47
2018-06-03T15:59:39.403Z,58.79
2018-06-03T16:04:41.602Z,57.76
2018-06-03T16:09:43.759Z,57.77
2018-06-03T16:14:45.913Z,58.73
2018-06-03T16:19:48.120Z,58.54
2018-06-03T16:24:50.311Z,57.80
2018-06-03T16:29:52.489Z,58.51
2018-06-03T16:34:54.707Z,57.75
2018-06-03T16:39:56.966Z,56.36
2018-06-03T16:44:59.150Z,55.64
2018-06-03T16:50:01.451Z,54.58
2018-06-03T16:55:03.880Z,53.23
2018-06-03T17:00:06.071Z,54.54
2018-06-03T17:05:08.345Z,55.08
2018-06-03T17:10:10.633Z,56.06
2018-06-03T17:15:12.861Z,54.04
2018-06-03T17:20:15.125Z,53.16
2018-06-03T17:25:17.351Z,52.30
2018-06-03T17:30:19.554Z,52.00
2018-06-03T17:35:21.754Z,52.29
2018-06-03T17:40:24.045Z,52.58
2018-06-03T17:45:26.227Z,52.93
2018-06-03T17:50:28.416Z,53.97
2018-06-03T17:55:30.716Z,53.26
2018-06-03T18:00:32.964Z,54.61
2018-06-03T18:05:35.261Z,55.32
2018-06-03T18:10:37.509Z,55.94
2018-06-03T18:15:39.755Z,55.66
2018-06-03T18:20:41.993Z,57.42
2018-06-03T18:25:44.199Z,58.31
2018-06-03T18:30:46.414Z,58.83
2018-06-03T18:35:48.593Z,59.85
2018-06-03T18:40:50.854Z,61.16
2018-06-03T18:45:53.074Z,62.04
2018-06-03T18:50:55.258Z,63.62
2018-06-03T18:55:57.498Z,64.26
2018-06-03T19:00:59.690Z,64.69
2018-06-03T19:06:01.908Z,64.92
2018-06-03T19:11:04.138Z,65.61
2018-06-03T19:16:06.123Z,65.76
2018-06-03T19:21:08.356Z,66.76
2018-06-03T19:26:10.557Z,66.41
2018-06-03T19:31:12.790Z,66.24
2018-06-03T19:36:15.040Z,66.14
2018-06-03T19:41:17.573Z,66.30
2018-06-03T19:46:19.881Z,66.76
2018-06-03T19:51:22.176Z,67.29
2018-06-03T19:56:24.459Z,66.17
2018-06-03T20:01:27.096Z,61.06
2018-06-03T20:06:29.355Z,61.46
2018-06-03T20:11:31.576Z,60.10
2018-06-03T20:16:34.429Z,59.10
2018-06-03T20:26:45.654Z,57.49
2018-06-03T20:31:48.243Z,58.48
2018-06-03T20:36:50.587Z,58.52
2018-06-03T20:41:52.873Z,58.55
2018-06-03T20:46:55.136Z,59.38
2018-06-03T20:51:57.429Z,58.89
2018-06-03T20:56:59.671Z,59.28
2018-06-03T21:02:01.919Z,59.43
2018-06-03T21:07:04.156Z,59.19
2018-06-03T21:12:06.357Z,59.53
2018-06-03T21:17:08.641Z,60.37
2018-06-03T21:22:10.835Z,60.83
2018-06-03T21:27:13.091Z,60.97
2018-06-03T21:32:15.362Z,61.21
2018-06-03T21:37:17.589Z,60.44
2018-06-03T21:42:19.868Z,60.33
2018-06-03T21:47:22.054Z,61.07
2018-06-03T21:52:24.290Z,61.11
2018-06-03T21:57:26.454Z,61.24
2018-06-03T22:02:28.649Z,61.55
2018-06-03T22:07:30.900Z,61.35
2018-06-03T22:12:40.075Z,63.21
2018-06-03T22:17:42.212Z,63.37
2018-06-03T22:22:44.377Z,61.17
2018-06-03T22:27:46.506Z,60.68
2018-06-03T22:32:48.644Z,60.56
2018-06-03T22:37:50.793Z,60.62
2018-06-03T22:42:52.971Z,60.92
2018-06-03T22:47:55.156Z,60.72
2018-06-03T22:52:57.332Z,60.87
2018-06-03T22:57:59.463Z,60.19
2018-06-03T23:03:07.292Z,60.94
2018-06-03T23:08:09.457Z,61.55
2018-06-03T23:13:11.685Z,60.88
2018-06-03T23:18:13.849Z,61.84
2018-06-03T23:23:16.170Z,61.65
2018-06-03T23:28:18.323Z,61.89
2018-06-03T23:33:20.534Z,62.55
2018-06-03T23:38:22.700Z,62.82
2018-06-03T23:43:24.860Z,62.27
2018-06-03T23:48:27.205Z,62.53
2018-06-03T23:53:29.352Z,62.84
2018-06-03T23:58:31.511Z,61.99
